Hlavní strana
METAR-TAF:

METAR-TAF

Letiště :

Columbia, Jižní Karolína, Spojené státy americké

zeměpisná šířka: 33-56-31N, zeměpisná délka: 081-07-05W, výška: 71 m

Aktuální stav počasí

Zpráva byla vytvořena před 37 minutami, v 17:56 UTC
Severoseverovýchodní vítr 8 kt s nárazy do 15 kt
Teplota 9°C
Vlhkost vzduchu 93%
Tlak 1018 hPa
Viditelnost: 4.8 km
Zataženo ve výšce 700 ft
déšť, kouřmo

METAR: KCAE 151756Z 02008G15KT 3SM RA BR OVC007 09/08 A3006 RMK AO2 CIG 005V011 SLP179 P0005 60048 T00940083 10094 20078 56038

Čas: 13:33 (18:33 UTC)

Předpověď počasí

Zpráva byla vytvořena před 1 hodinou a 12 minutami, v 17:21 UTC
Předpověď platná od 15 v 18 UTC do 16 v 18 UTC
Severoseverovýchodní vítr 8 kt
Viditelnost: 4.8 km
Zataženo ve výšce 600 ft
slabý déšť, kouřmo
Od 16 v 0000 UTC
Severoseverovýchodní vítr 10 kt s nárazy do 16 kt
Viditelnost: 9.7 km
Zataženo ve výšce 700 ft
slabý déšť, kouřmo

TAF: KCAE 151721Z 1518/1618 03008KT 3SM -RA BR OVC006 WS020/04040KT FM160000 02010G16KT 6SM -RA BR OVC007 WS020/03038KT

Stav a předpovědi počasí z více než 4 000 letišť (zprávy METAR a TAF).

Červené a žluté tečky na mapě představují dostupné meteorologické stanice.

Když kurzor umístíte na tečku, zobrazí se název stanice.

Pak kliknutím zobrazíte stav a předpověď počasí.

Chcete-li změnit mapu, kliknutím na zelené tlačítko se znaménkem +mapu přiblížíte, kliknutím na zelené tlačítko se znaménkem – mapu oddálíte a kliknutím na zelené šipky přejdete na sousední mapy.


METAR-TAF: